Altonah, Utah
Current Conditions -  °F | °C
As of 12:53 PM on Thursday 30 Oct 2014 (Local Time) from KVEL Reporting Station
Clear Clear  
Wind Chill: 56°   Ceiling: Unl
Heat Index: 56°   Visibility: 10mi
Dew Point: 25°   Wind: 3mph
Humidity: 30%   Direction: 80°E
Pressure: 30.36"   Gusts: NA
Location:  40.4°N, 110.29°W
Report Text: KVEL 301853Z AUTO 08003KT 10SM CLR 13/M04 A3036 RMK AO2 SLP261 T01331039
Loading
Personal Weather Stations






























Interactive Weather Map
Tropical Storm Tracking
New forecast layout! Learn more

10-Day Weather Forecast

Advertisements
Track Severe Weather on mobile